Time;durP1;ratioP1;P1;durP2;ratioP2;P2;SDS_P1;SDS_P2;PMS_P1;PMS_P2;Temp;Humidity;BMP_temperature;BMP_pressure;BME280_temperature;BME280_humidity;BME280_pressure;Samples;Min_cycle;Max_cycle;Signal;HPM_P1;HPM_P2
2023/10/11 00:00:37;;;;;;;15.38;9.70;;;11.70;99.90;;;;;;5013263;28;20030;-71
2023/10/11 00:03:16;;;;;;;14.18;8.13;;;11.70;99.90;;;;;;5004278;28;20041;-73
2023/10/11 00:05:43;;;;;;;16.73;8.00;;;11.70;99.90;;;;;;5017330;28;20537;-74
2023/10/11 00:08:13;;;;;;;16.45;8.90;;;11.70;99.90;;;;;;5011602;28;20046;-73
2023/10/11 00:10:55;;;;;;;12.48;7.93;;;11.60;99.90;;;;;;5014951;28;20073;-67
2023/10/11 00:13:28;;;;;;;16.85;7.70;;;11.60;99.90;;;;;;5016102;28;20211;-67
2023/10/11 00:15:54;;;;;;;14.90;8.63;;;11.70;99.90;;;;;;5008425;28;20042;-67
2023/10/11 00:18:28;;;;;;;14.52;8.27;;;11.70;99.90;;;;;;5011410;28;20115;-67
2023/10/11 00:20:59;;;;;;;13.82;8.75;;;11.70;99.90;;;;;;5012006;28;20364;-67
2023/10/11 00:23:26;;;;;;;17.00;9.40;;;11.70;99.90;;;;;;5010376;28;20115;-68
2023/10/11 00:25:58;;;;;;;16.88;9.23;;;11.60;99.90;;;;;;5009235;28;20030;-66
2023/10/11 00:28:24;;;;;;;20.33;10.00;;;11.70;99.90;;;;;;5007315;28;21005;-72
2023/10/11 00:30:55;;;;;;;19.55;10.05;;;11.70;99.90;;;;;;5004908;28;20045;-73
2023/10/11 00:33:21;;;;;;;18.27;10.07;;;11.70;99.90;;;;;;5007718;28;20041;-71
2023/10/11 00:35:48;;;;;;;18.80;10.18;;;11.70;99.90;;;;;;5004821;28;20052;-72
2023/10/11 00:38:29;;;;;;;21.85;11.13;;;11.70;99.90;;;;;;5008498;28;20102;-73
2023/10/11 00:41:18;;;;;;;17.17;9.52;;;11.70;99.90;;;;;;5006424;28;20111;-70
2023/10/11 00:43:52;;;;;;;21.92;10.80;;;11.70;99.90;;;;;;5018299;28;20045;-71
2023/10/11 00:46:36;;;;;;;21.08;10.30;;;11.80;99.90;;;;;;5024822;28;20040;-66
2023/10/11 00:49:14;;;;;;;20.48;10.60;;;11.80;99.90;;;;;;5014294;28;20781;-66
2023/10/11 00:51:41;;;;;;;21.95;11.68;;;11.80;99.90;;;;;;5028921;28;20431;-66
2023/10/11 00:54:07;;;;;;;23.80;11.60;;;11.80;99.90;;;;;;5023200;28;20107;-66
2023/10/11 00:56:33;;;;;;;24.23;12.45;;;11.90;99.90;;;;;;5008727;28;20553;-66
2023/10/11 00:59:08;;;;;;;20.48;11.25;;;11.90;99.90;;;;;;5025835;28;20045;-66
2023/10/11 01:01:35;;;;;;;21.17;11.55;;;12.00;99.90;;;;;;5023250;28;20029;-66
2023/10/11 01:04:01;;;;;;;20.50;10.77;;;12.00;99.90;;;;;;5023047;28;20136;-67
2023/10/11 01:06:28;;;;;;;21.15;11.18;;;12.00;99.90;;;;;;5027307;28;20122;-66
2023/10/11 01:08:54;;;;;;;19.58;10.18;;;12.00;99.90;;;;;;5025841;28;20062;-66
2023/10/11 01:11:21;;;;;;;21.50;11.30;;;12.00;99.90;;;;;;5014642;28;20394;-66
2023/10/11 01:13:53;;;;;;;19.48;9.70;;;12.00;99.90;;;;;;5028046;28;20073;-66
2023/10/11 01:16:25;;;;;;;22.27;10.75;;;12.00;99.90;;;;;;5024536;28;20681;-66
2023/10/11 01:18:51;;;;;;;19.77;11.05;;;12.00;99.90;;;;;;5029064;28;20412;-66
2023/10/11 01:21:16;;;;;;;20.30;10.32;;;12.00;99.90;;;;;;5023098;28;20490;-66
2023/10/11 01:23:42;;;;;;;19.48;11.25;;;12.00;99.90;;;;;;5030388;28;20094;-67
2023/10/11 01:26:08;;;;;;;23.65;11.23;;;12.00;99.90;;;;;;5016818;28;20469;-66
2023/10/11 01:28:41;;;;;;;19.27;10.68;;;12.00;99.90;;;;;;5028596;28;20539;-66
2023/10/11 01:31:10;;;;;;;20.48;10.68;;;12.00;99.90;;;;;;5024953;28;20450;-66
2023/10/11 01:33:41;;;;;;;20.10;10.63;;;12.00;99.90;;;;;;5003703;28;20056;-66
2023/10/11 01:36:09;;;;;;;24.98;11.02;;;12.10;99.90;;;;;;5024698;28;20034;-66
2023/10/11 01:38:47;;;;;;;20.48;10.98;;;12.10;99.90;;;;;;5016500;28;20144;-66
2023/10/11 01:41:20;;;;;;;20.95;10.90;;;12.10;99.90;;;;;;5027133;28;20045;-67
2023/10/11 01:43:46;;;;;;;22.15;11.15;;;12.10;99.90;;;;;;5024761;28;20131;-70
2023/10/11 01:46:16;;;;;;;20.83;10.48;;;12.10;99.90;;;;;;5027469;28;20505;-71
2023/10/11 01:48:43;;;;;;;20.08;10.77;;;12.10;99.90;;;;;;5028459;28;20080;-71
2023/10/11 01:51:09;;;;;;;21.80;11.52;;;12.10;99.90;;;;;;5027783;28;20524;-71
2023/10/11 01:53:38;;;;;;;21.15;10.20;;;12.20;99.90;;;;;;5031632;28;20163;-71
2023/10/11 01:56:04;;;;;;;20.95;11.27;;;12.20;99.90;;;;;;5034011;28;20033;-71
2023/10/11 01:58:29;;;;;;;22.00;11.40;;;12.20;99.90;;;;;;5018847;28;20033;-66
2023/10/11 02:00:56;;;;;;;18.60;10.90;;;12.30;99.90;;;;;;5015457;28;20436;-66
2023/10/11 02:03:24;;;;;;;20.42;10.90;;;12.30;99.90;;;;;;5030748;28;20053;-66
2023/10/11 02:05:50;;;;;;;19.70;11.43;;;12.30;99.90;;;;;;5023772;28;20059;-66
2023/10/11 02:08:17;;;;;;;20.00;11.70;;;12.30;99.90;;;;;;5022832;28;20027;-67
2023/10/11 02:10:45;;;;;;;20.88;11.82;;;12.30;99.90;;;;;;5015318;28;20064;-66
2023/10/11 02:13:12;;;;;;;22.70;11.18;;;12.30;99.90;;;;;;5024500;28;20040;-66
2023/10/11 02:15:39;;;;;;;19.60;10.95;;;12.30;99.90;;;;;;5035712;28;20041;-66
2023/10/11 02:18:10;;;;;;;19.80;11.20;;;12.30;99.90;;;;;;5029920;28;20033;-71
2023/10/11 02:20:43;;;;;;;21.00;11.15;;;12.30;99.90;;;;;;5026618;28;20059;-66
2023/10/11 02:23:09;;;;;;;19.20;11.18;;;12.30;99.90;;;;;;5021990;28;20727;-66
2023/10/11 02:25:34;;;;;;;23.52;11.27;;;12.30;99.90;;;;;;5020178;28;20052;-66
2023/10/11 02:28:00;;;;;;;21.00;11.48;;;12.30;99.90;;;;;;5018674;28;20043;-66
2023/10/11 02:30:26;;;;;;;18.13;11.18;;;12.20;99.90;;;;;;5022547;28;20172;-66
2023/10/11 02:33:04;;;;;;;18.77;10.77;;;12.20;99.90;;;;;;5032384;28;20037;-66
2023/10/11 02:35:31;;;;;;;20.85;10.13;;;12.30;99.90;;;;;;5009504;28;20636;-71
2023/10/11 02:37:59;;;;;;;21.73;11.00;;;12.30;99.90;;;;;;5028409;28;20049;-72
2023/10/11 02:40:24;;;;;;;21.45;11.48;;;12.30;99.90;;;;;;5029752;28;20056;-71
2023/10/11 02:42:55;;;;;;;20.20;11.98;;;12.30;99.90;;;;;;5029597;28;20132;-71
2023/10/11 02:45:24;;;;;;;19.87;11.73;;;12.30;99.90;;;;;;5028651;28;20275;-71
2023/10/11 02:47:59;;;;;;;17.42;10.30;;;12.30;99.90;;;;;;5025944;28;20028;-72
2023/10/11 02:50:25;;;;;;;19.20;9.43;;;12.30;99.90;;;;;;5033193;28;20148;-71
2023/10/11 02:52:59;;;;;;;19.13;10.55;;;12.30;99.90;;;;;;5021560;28;20099;-71
2023/10/11 02:55:26;;;;;;;17.05;9.63;;;12.30;99.90;;;;;;5022789;28;20135;-71
2023/10/11 02:58:06;;;;;;;21.80;11.05;;;12.30;99.90;;;;;;5014131;28;20033;-71
2023/10/11 03:00:33;;;;;;;18.27;10.05;;;12.30;99.90;;;;;;5024691;28;20050;-70
2023/10/11 03:03:00;;;;;;;19.63;10.80;;;12.30;99.90;;;;;;5028940;28;20037;-71
2023/10/11 03:05:29;;;;;;;21.52;11.68;;;12.30;99.90;;;;;;5011279;28;20038;-71
2023/10/11 03:07:55;;;;;;;18.55;11.07;;;12.30;99.90;;;;;;5027174;28;20025;-71
2023/10/11 03:10:22;;;;;;;18.17;11.38;;;12.30;99.90;;;;;;5035722;28;20756;-71
2023/10/11 03:12:51;;;;;;;16.40;10.20;;;12.30;99.90;;;;;;5033696;28;20124;-71
2023/10/11 03:15:19;;;;;;;16.67;10.43;;;12.30;99.90;;;;;;5028603;28;20033;-66
2023/10/11 03:17:52;;;;;;;17.73;10.07;;;12.20;99.90;;;;;;5023510;28;20930;-66
2023/10/11 03:20:37;;;;;;;14.35;9.48;;;12.20;99.90;;;;;;5034266;28;20045;-66
2023/10/11 03:23:10;;;;;;;17.48;10.60;;;12.20;99.90;;;;;;5023091;28;20049;-66
2023/10/11 03:25:38;;;;;;;18.30;9.50;;;12.10;99.90;;;;;;5024387;28;20029;-66
2023/10/11 03:28:05;;;;;;;17.17;9.65;;;12.10;99.90;;;;;;5034490;28;20033;-66
2023/10/11 03:30:35;;;;;;;17.67;9.90;;;12.10;99.90;;;;;;5027899;28;20045;-66
2023/10/11 03:33:07;;;;;;;17.85;10.32;;;12.10;99.90;;;;;;5034980;28;20037;-70
2023/10/11 03:35:38;;;;;;;15.20;10.18;;;12.10;99.90;;;;;;5015929;28;20060;-70
2023/10/11 03:38:16;;;;;;;18.42;9.70;;;12.10;99.90;;;;;;5035000;28;20123;-71
2023/10/11 03:41:14;;;;;;;16.48;9.85;;;12.10;99.90;;;;;;5025295;28;20111;-71
2023/10/11 03:43:41;;;;;;;19.58;11.05;;;12.10;99.90;;;;;;5024276;28;21237;-71
2023/10/11 03:46:09;;;;;;;25.40;11.50;;;12.10;99.90;;;;;;5034559;28;20029;-71
2023/10/11 03:48:44;;;;;;;19.10;10.55;;;12.00;99.90;;;;;;5033414;28;20207;-71
2023/10/11 03:51:11;;;;;;;18.73;10.60;;;12.00;99.90;;;;;;5030062;28;20076;-70
2023/10/11 03:53:41;;;;;;;19.45;10.82;;;12.00;99.90;;;;;;5019366;28;20537;-71
2023/10/11 03:56:07;;;;;;;23.90;11.27;;;12.00;99.90;;;;;;5030304;28;20037;-71
2023/10/11 03:58:33;;;;;;;19.40;10.52;;;12.00;99.90;;;;;;5026316;28;20055;-71
2023/10/11 04:03:39;;;;;;;20.80;11.07;;;12.00;99.90;;;;;;5035641;28;20065;-71
2023/10/11 04:06:15;;;;;;;19.15;10.32;;;12.00;99.90;;;;;;5032600;28;20037;-71
2023/10/11 04:08:50;;;;;;;20.65;11.15;;;12.00;99.90;;;;;;5037983;28;20047;-67
2023/10/11 04:11:19;;;;;;;17.42;10.32;;;12.10;99.90;;;;;;5026584;28;20029;-66
2023/10/11 04:13:49;;;;;;;18.55;10.82;;;12.10;99.90;;;;;;5005253;28;20072;-66
2023/10/11 04:16:18;;;;;;;20.55;10.77;;;12.10;99.90;;;;;;5003926;28;20151;-67
2023/10/11 04:18:44;;;;;;;21.75;10.93;;;12.10;99.90;;;;;;5037362;28;20049;-67
2023/10/11 04:23:35;;;;;;;16.38;10.48;;;12.00;99.90;;;;;;5022951;28;20030;-66
2023/10/11 04:26:26;;;;;;;20.88;10.75;;;12.00;99.90;;;;;;5003571;28;20590;-66
2023/10/11 04:28:52;;;;;;;18.30;10.75;;;12.00;99.90;;;;;;5002080;28;20045;-66
2023/10/11 04:31:36;;;;;;;18.55;10.32;;;12.00;99.90;;;;;;5022515;28;20052;-65
2023/10/11 04:34:11;;;;;;;17.40;9.68;;;12.00;99.90;;;;;;5032961;28;20041;-65
2023/10/11 04:36:42;;;;;;;18.52;10.50;;;12.00;99.90;;;;;;5027102;28;20067;-66
2023/10/11 04:39:27;;;;;;;23.65;10.77;;;12.00;99.90;;;;;;5023152;28;20151;-68
2023/10/11 04:41:57;;;;;;;16.73;10.52;;;11.90;99.90;;;;;;5026852;28;20553;-65
2023/10/11 04:44:23;;;;;;;18.55;11.10;;;11.90;99.90;;;;;;5015630;28;20033;-66
2023/10/11 04:46:57;;;;;;;19.23;11.75;;;11.90;99.90;;;;;;5019238;28;20075;-66
2023/10/11 04:49:24;;;;;;;20.55;11.52;;;11.90;99.90;;;;;;5027405;28;20321;-65
2023/10/11 04:51:55;;;;;;;21.02;11.68;;;12.00;99.90;;;;;;5030233;28;20037;-66
2023/10/11 04:54:21;;;;;;;26.25;12.18;;;12.00;99.90;;;;;;5030461;28;20087;-66
2023/10/11 05:02:16;;;;;;;24.30;16.00;;;12.00;99.90;;;;;;5025477;28;20440;-66
2023/10/11 05:04:44;;;;;;;22.85;15.18;;;12.00;99.90;;;;;;5019667;28;20616;-71
2023/10/11 05:07:09;;;;;;;21.77;13.27;;;12.00;99.90;;;;;;5022202;28;20040;-71
2023/10/11 05:09:39;;;;;;;21.17;12.38;;;12.00;99.90;;;;;;5022186;28;20064;-72
2023/10/11 05:12:19;;;;;;;18.27;12.18;;;12.00;99.90;;;;;;5017464;28;21000;-72
2023/10/11 05:19:55;;;;;;;19.92;11.98;;;12.00;99.90;;;;;;5020139;28;20056;-67
2023/10/11 05:32:58;;;;;;;20.20;14.35;;;12.20;99.90;;;;;;5013525;28;20185;-75
2023/10/11 05:51:39;;;;;;;27.77;17.00;;;12.40;99.90;;;;;;5028374;28;20048;-73
2023/10/11 05:54:09;;;;;;;27.77;16.73;;;12.40;99.90;;;;;;5026920;28;20044;-76
2023/10/11 05:56:38;;;;;;;24.85;15.65;;;12.50;99.90;;;;;;5039452;28;20385;-75
2023/10/11 05:59:04;;;;;;;24.45;15.60;;;12.50;99.90;;;;;;5026052;28;20029;-75
2023/10/11 06:01:31;;;;;;;22.13;14.45;;;12.60;99.90;;;;;;5037574;28;20043;-75
2023/10/11 06:03:57;;;;;;;30.75;20.38;;;12.60;99.90;;;;;;5032413;28;20045;-74
2023/10/11 06:06:23;;;;;;;24.17;15.45;;;12.60;99.90;;;;;;5036601;28;20028;-74
2023/10/11 06:08:54;;;;;;;26.42;15.30;;;12.70;99.90;;;;;;5031480;28;20048;-74
2023/10/11 06:11:20;;;;;;;29.52;16.33;;;12.70;99.90;;;;;;5034311;28;20655;-74
2023/10/11 06:13:47;;;;;;;33.67;19.20;;;12.70;99.90;;;;;;5028782;28;20053;-74
2023/10/11 06:16:16;;;;;;;31.98;21.27;;;12.80;99.90;;;;;;5005795;28;20029;-74
2023/10/11 06:21:34;;;;;;;34.22;20.38;;;12.90;99.90;;;;;;4953079;28;20074;-74
2023/10/11 06:24:02;;;;;;;30.60;18.15;;;12.90;99.90;;;;;;4950191;28;20130;-75
2023/10/11 06:29:08;;;;;;;31.75;17.83;;;13.00;99.90;;;;;;4950195;28;20806;-75
2023/10/11 06:31:39;;;;;;;32.72;17.05;;;13.00;99.90;;;;;;4942893;28;20486;-75
2023/10/11 06:34:15;;;;;;;27.90;16.10;;;12.90;99.90;;;;;;4952881;28;20135;-74
2023/10/11 06:36:42;;;;;;;30.05;16.33;;;12.90;99.90;;;;;;4955512;28;20039;-66
2023/10/11 06:39:33;;;;;;;29.73;17.45;;;13.00;99.90;;;;;;4954640;28;20054;-66
2023/10/11 06:41:54;;;;;;;34.72;17.55;;;13.00;99.90;;;;;;4940726;28;20065;-66
2023/10/11 06:44:22;;;;;;;44.88;27.30;;;13.00;99.90;;;;;;4946687;28;20106;-67
2023/10/11 06:46:50;;;;;;;43.28;28.42;;;13.10;99.90;;;;;;4960019;28;20361;-65
2023/10/11 06:49:17;;;;;;;34.95;23.00;;;13.10;99.90;;;;;;4951747;28;20047;-65
2023/10/11 06:51:43;;;;;;;27.75;16.35;;;13.00;99.90;;;;;;4960449;28;20031;-65
2023/10/11 06:54:09;;;;;;;32.30;18.73;;;13.00;99.90;;;;;;4958257;28;20047;-74
2023/10/11 06:56:38;;;;;;;31.08;17.52;;;13.00;99.90;;;;;;4957713;28;20046;-74
2023/10/11 06:59:04;;;;;;;35.10;15.93;;;13.00;99.90;;;;;;5010890;28;20064;-74
2023/10/11 07:01:34;;;;;;;28.48;16.75;;;13.00;99.90;;;;;;5013687;28;20121;-74
2023/10/11 07:04:00;;;;;;;28.73;16.52;;;13.10;99.90;;;;;;5034666;28;20067;-76
2023/10/11 07:06:25;;;;;;;33.85;16.67;;;13.20;99.90;;;;;;5026958;28;20112;-75
2023/10/11 07:08:53;;;;;;;30.17;18.15;;;13.20;99.90;;;;;;5030007;28;20118;-74
2023/10/11 07:11:42;;;;;;;31.33;17.20;;;13.20;99.90;;;;;;5029353;28;20025;-66
2023/10/11 07:14:14;;;;;;;26.90;16.00;;;13.30;99.90;;;;;;5036212;28;20068;-66
2023/10/11 07:16:44;;;;;;;33.08;17.27;;;13.30;99.90;;;;;;5034998;28;20599;-66
2023/10/11 07:19:11;;;;;;;29.45;16.33;;;13.30;99.90;;;;;;5028077;28;20040;-65
2023/10/11 07:27:09;;;;;;;25.10;16.13;;;13.30;99.90;;;;;;5018891;28;20037;-65
2023/10/11 07:29:45;;;;;;;27.10;15.95;;;13.40;99.90;;;;;;5033681;28;20045;-71
2023/10/11 07:32:11;;;;;;;27.60;15.35;;;13.40;99.90;;;;;;5030950;28;20425;-72
2023/10/11 07:34:39;;;;;;;28.80;15.48;;;13.30;99.90;;;;;;5032236;28;20044;-73
2023/10/11 07:37:05;;;;;;;25.98;15.43;;;13.30;99.90;;;;;;5029975;28;20456;-72
2023/10/11 07:39:33;;;;;;;26.48;14.95;;;13.30;99.90;;;;;;5032129;28;20045;-73
2023/10/11 07:42:06;;;;;;;23.17;15.02;;;13.20;99.90;;;;;;5031154;28;20505;-73
2023/10/11 07:44:36;;;;;;;24.25;14.98;;;13.20;99.90;;;;;;5030356;28;20253;-73
2023/10/11 07:47:07;;;;;;;28.48;16.13;;;13.30;99.90;;;;;;5035068;28;20136;-73
2023/10/11 07:49:38;;;;;;;29.75;14.82;;;13.40;99.90;;;;;;5033794;28;20037;-65
2023/10/11 07:52:08;;;;;;;30.52;15.07;;;13.50;99.90;;;;;;5010099;28;20155;-74
2023/10/11 07:54:35;;;;;;;23.63;15.52;;;13.60;99.90;;;;;;5034247;28;21823;-74
2023/10/11 07:57:03;;;;;;;24.85;14.38;;;13.70;99.90;;;;;;4999585;28;20076;-74
2023/10/11 07:59:30;;;;;;;24.10;13.82;;;13.70;99.90;;;;;;5018610;28;20037;-73
2023/10/11 08:01:59;;;;;;;22.27;13.57;;;13.70;99.90;;;;;;5035926;28;20518;-74
2023/10/11 08:04:29;;;;;;;22.15;14.13;;;13.70;99.90;;;;;;5034042;28;20110;-74
2023/10/11 08:07:09;;;;;;;21.25;13.93;;;13.80;99.90;;;;;;5038515;28;20056;-73
2023/10/11 08:09:52;;;;;;;24.02;14.93;;;13.80;99.90;;;;;;5024610;28;20037;-73
2023/10/11 08:12:27;;;;;;;22.02;13.32;;;13.70;99.90;;;;;;5022367;28;20033;-73
2023/10/11 08:14:58;;;;;;;37.75;23.67;;;13.70;99.90;;;;;;5031673;28;20283;-71
2023/10/11 08:17:26;;;;;;;117.75;96.07;;;13.70;99.90;;;;;;5032582;28;20128;-72
2023/10/11 08:19:53;;;;;;;26.08;16.30;;;13.80;99.90;;;;;;5018834;28;20052;-71
2023/10/11 08:22:22;;;;;;;25.17;16.70;;;13.80;99.90;;;;;;5034317;28;20383;-74
2023/10/11 08:24:49;;;;;;;21.50;13.73;;;13.90;99.90;;;;;;5028891;28;20037;-73
2023/10/11 08:27:28;;;;;;;20.67;14.13;;;14.00;99.90;;;;;;5036173;28;20064;-72
2023/10/11 08:30:17;;;;;;;22.10;14.05;;;14.10;99.90;;;;;;5027898;28;20386;-69
2023/10/11 08:32:43;;;;;;;22.40;13.90;;;14.20;99.90;;;;;;5017992;28;20557;-68
2023/10/11 08:35:16;;;;;;;73.95;56.28;;;14.40;99.90;;;;;;5037620;28;20494;-71
2023/10/11 08:37:41;;;;;;;86.05;70.70;;;14.70;99.90;;;;;;5033404;28;20048;-78
2023/10/11 08:40:29;;;;;;;78.65;51.85;;;15.00;99.90;;;;;;5031087;28;20028;-69
2023/10/11 08:42:59;;;;;;;199.30;154.70;;;15.40;99.90;;;;;;5028185;28;20049;-71
2023/10/11 08:45:35;;;;;;;494.73;373.23;;;15.60;99.90;;;;;;5027927;28;20033;-77
2023/10/11 08:48:05;;;;;;;31.58;21.05;;;15.80;99.90;;;;;;5022340;28;20033;-70
2023/10/11 08:50:36;;;;;;;17.60;12.32;;;16.00;99.90;;;;;;5031550;28;20048;-69
2023/10/11 08:53:09;;;;;;;21.10;12.25;;;16.30;99.90;;;;;;5030458;28;20176;-69
2023/10/11 08:55:42;;;;;;;248.48;221.48;;;16.40;99.90;;;;;;5028982;28;20136;-70
2023/10/11 08:58:23;;;;;;;19.92;12.27;;;16.60;99.90;;;;;;5036582;28;20650;-69
2023/10/11 09:00:51;;;;;;;232.85;188.68;;;16.90;99.90;;;;;;5011577;28;20036;-73
2023/10/11 09:03:18;;;;;;;38.72;23.73;;;17.00;99.90;;;;;;5034384;28;20564;-72
2023/10/11 09:05:45;;;;;;;113.93;96.68;;;17.20;99.90;;;;;;5025515;28;20045;-71
2023/10/11 09:08:21;;;;;;;18.05;11.38;;;17.50;99.90;;;;;;5026572;28;20115;-71
2023/10/11 09:10:49;;;;;;;22.88;12.07;;;17.70;99.90;;;;;;5008764;28;20040;-72
2023/10/11 09:13:26;;;;;;;17.73;11.20;;;17.80;99.90;;;;;;5027747;28;20081;-72
2023/10/11 09:15:54;;;;;;;15.10;10.18;;;18.00;99.90;;;;;;5023707;28;20033;-71
2023/10/11 09:18:21;;;;;;;259.65;202.88;;;18.20;99.90;;;;;;5010629;28;20533;-77
2023/10/11 09:21:09;;;;;;;26.15;19.42;;;18.40;99.90;;;;;;5000118;28;20115;-72
2023/10/11 09:23:47;;;;;;;18.42;10.73;;;18.40;99.90;;;;;;5021642;28;20041;-72
2023/10/11 09:26:34;;;;;;;14.88;9.40;;;18.50;99.90;;;;;;5029281;28;20092;-72
2023/10/11 09:29:02;;;;;;;26.35;16.65;;;18.60;99.90;;;;;;5036297;28;20091;-71
2023/10/11 09:31:35;;;;;;;17.05;9.85;;;18.60;99.90;;;;;;5028258;28;20037;-72
2023/10/11 09:34:07;;;;;;;339.92;274.15;;;18.60;99.90;;;;;;5033369;28;20110;-73
2023/10/11 09:36:33;;;;;;;107.82;70.40;;;18.70;99.90;;;;;;5036606;28;20025;-70
2023/10/11 09:39:02;;;;;;;14.93;9.57;;;19.00;99.90;;;;;;5033750;28;20094;-69
2023/10/11 09:41:38;;;;;;;16.40;10.13;;;19.20;99.90;;;;;;5016965;28;20080;-71
2023/10/11 09:44:05;;;;;;;17.38;9.00;;;19.40;99.90;;;;;;5037708;28;20129;-71
2023/10/11 09:46:33;;;;;;;15.93;9.95;;;19.60;99.90;;;;;;5034016;28;20083;-73
2023/10/11 09:49:01;;;;;;;18.10;9.30;;;19.60;99.90;;;;;;5024729;28;20037;-77
2023/10/11 09:51:27;;;;;;;15.05;8.75;;;19.60;99.90;;;;;;5035059;28;20569;-82
2023/10/11 09:53:53;;;;;;;16.65;9.10;;;19.60;99.90;;;;;;5032032;28;20372;-83
2023/10/11 09:56:35;;;;;;;13.07;8.65;;;19.60;99.90;;;;;;5033360;28;20506;-82
2023/10/11 09:59:19;;;;;;;12.75;7.95;;;19.70;99.90;;;;;;5034151;28;20069;-81
2023/10/11 10:02:06;;;;;;;18.58;9.63;;;19.80;99.90;;;;;;5029588;28;20679;-80
2023/10/11 10:04:50;;;;;;;17.08;8.32;;;20.00;99.90;;;;;;5022120;28;20049;-78
2023/10/11 10:07:42;;;;;;;12.98;7.60;;;20.00;99.90;;;;;;5030263;28;20057;-79
2023/10/11 10:10:25;;;;;;;;;;;20.10;99.90;;;;;;5033000;28;20043;-84
2023/10/11 10:12:58;;;;;;;20.30;13.90;;;20.20;99.90;;;;;;5032391;28;19939;-80
2023/10/11 10:15:32;;;;;;;25.98;15.23;;;20.50;99.90;;;;;;5038582;28;20095;-79
2023/10/11 10:18:00;;;;;;;13.80;8.65;;;20.60;99.90;;;;;;5038249;28;20040;-71
2023/10/11 10:20:34;;;;;;;10.70;7.35;;;20.70;99.90;;;;;;5035498;28;20049;-74
2023/10/11 10:23:15;;;;;;;15.85;10.73;;;20.90;99.90;;;;;;5024333;28;20025;-71
2023/10/11 10:25:49;;;;;;;14.05;8.15;;;20.90;99.90;;;;;;5038027;28;20045;-72
2023/10/11 10:28:49;;;;;;;12.13;8.10;;;21.00;99.90;;;;;;5038248;28;20029;-71
2023/10/11 10:31:16;;;;;;;13.70;8.10;;;20.90;99.90;;;;;;4995375;28;20470;-71
2023/10/11 10:33:50;;;;;;;16.13;7.50;;;20.90;99.90;;;;;;5037230;28;21956;-73
2023/10/11 10:36:21;;;;;;;15.02;9.10;;;21.00;99.90;;;;;;5010157;28;20039;-75
2023/10/11 10:39:24;;;;;;;10.57;7.70;;;21.00;99.90;;;;;;5019002;28;20034;-78
2023/10/11 10:42:13;;;;;;;11.48;7.15;;;21.00;99.90;;;;;;5025194;28;20989;-80
2023/10/11 10:44:51;;;;;;;18.50;11.95;;;21.00;99.90;;;;;;5027571;28;20041;-73
2023/10/11 10:47:29;;;;;;;13.10;7.78;;;21.10;99.90;;;;;;5010789;28;20038;-77
2023/10/11 10:49:55;;;;;;;25.02;8.07;;;21.30;99.90;;;;;;5013426;28;20047;-77
2023/10/11 10:52:25;;;;;;;13.10;7.78;;;21.50;99.90;;;;;;5010539;28;20048;-67
2023/10/11 10:55:01;;;;;;;14.38;7.20;;;21.50;99.90;;;;;;5028405;28;20687;-68
2023/10/11 10:57:36;;;;;;;14.23;7.30;;;21.50;99.90;;;;;;5034952;28;20041;-66
2023/10/11 11:00:20;;;;;;;15.27;7.57;;;21.50;99.90;;;;;;5031546;28;20036;-76
2023/10/11 11:02:46;;;;;;;11.38;6.47;;;21.60;99.90;;;;;;5032762;28;20103;-79
2023/10/11 11:05:13;;;;;;;13.05;6.95;;;21.60;99.90;;;;;;5019986;28;20666;-75
2023/10/11 11:07:40;;;;;;;13.07;6.63;;;21.80;99.90;;;;;;5029495;28;20034;-70
2023/10/11 11:10:06;;;;;;;10.30;6.97;;;21.70;99.90;;;;;;5032518;28;20033;-72
2023/10/11 11:12:32;;;;;;;11.27;6.57;;;21.70;99.90;;;;;;5034952;28;20041;-65
2023/10/11 11:14:58;;;;;;;13.70;7.03;;;21.80;99.90;;;;;;5036256;28;20029;-65
2023/10/11 11:17:45;;;;;;;11.32;6.53;;;22.00;99.90;;;;;;5035399;28;20904;-64
2023/10/11 11:20:15;;;;;;;13.52;7.30;;;22.00;99.90;;;;;;5026596;28;20044;-65
2023/10/11 11:22:45;;;;;;;11.60;6.43;;;22.10;99.90;;;;;;5025913;28;20037;-65
2023/10/11 11:28:06;;;;;;;11.50;6.95;;;22.30;99.90;;;;;;5035650;28;20056;-65
2023/10/11 11:30:36;;;;;;;12.35;6.82;;;22.50;99.90;;;;;;5024269;28;20045;-65
2023/10/11 11:33:10;;;;;;;14.70;6.47;;;22.50;99.90;;;;;;5040851;28;20107;-64
2023/10/11 11:35:54;;;;;;;13.38;6.93;;;22.60;99.90;;;;;;5033111;28;20026;-64
2023/10/11 11:38:23;;;;;;;11.70;6.30;;;22.60;99.90;;;;;;5027008;28;20052;-64
2023/10/11 11:40:51;;;;;;;11.25;6.30;;;22.70;99.90;;;;;;5034636;28;20029;-64
2023/10/11 11:43:20;;;;;;;12.55;6.78;;;22.60;99.90;;;;;;5034038;28;20041;-64
2023/10/11 11:45:47;;;;;;;12.52;6.35;;;22.60;99.90;;;;;;5034394;28;20112;-65
2023/10/11 11:48:23;;;;;;;13.85;7.00;;;22.60;99.90;;;;;;5038026;28;20037;-69
2023/10/11 11:50:49;;;;;;;14.00;7.32;;;22.70;99.90;;;;;;5040478;28;20469;-69
2023/10/11 11:53:18;;;;;;;12.75;6.40;;;22.80;99.90;;;;;;5030660;28;20132;-70
2023/10/11 11:55:45;;;;;;;11.70;6.43;;;22.80;99.90;;;;;;5028572;28;20051;-69
2023/10/11 11:58:10;;;;;;;11.68;6.53;;;22.70;99.90;;;;;;5017046;28;20038;-69
2023/10/11 12:00:40;;;;;;;11.05;6.25;;;22.80;99.90;;;;;;5028344;28;20040;-69
2023/10/11 12:03:08;;;;;;;10.52;5.45;;;22.90;99.90;;;;;;5028889;28;20037;-69
2023/10/11 12:05:40;;;;;;;10.48;5.97;;;23.00;99.90;;;;;;5025023;28;20269;-68
2023/10/11 12:08:20;;;;;;;11.30;6.28;;;23.10;99.90;;;;;;5024748;28;20045;-68
2023/10/11 12:10:49;;;;;;;13.23;6.85;;;23.10;99.90;;;;;;5024822;28;20037;-69
2023/10/11 12:13:34;;;;;;;14.35;7.10;;;23.10;99.90;;;;;;5023105;28;20045;-69
2023/10/11 12:16:03;;;;;;;12.00;7.68;;;23.20;99.90;;;;;;5012568;28;20062;-70
2023/10/11 12:18:34;;;;;;;12.50;6.82;;;23.30;99.90;;;;;;5027907;28;20044;-69
2023/10/11 12:21:10;;;;;;;15.13;8.23;;;23.30;99.90;;;;;;5028112;28;20041;-69
2023/10/11 12:23:37;;;;;;;15.75;8.35;;;23.40;99.90;;;;;;5007025;28;20077;-70
2023/10/11 12:26:04;;;;;;;15.68;8.98;;;23.50;99.90;;;;;;5029149;28;20041;-69
2023/10/11 12:28:30;;;;;;;16.48;9.23;;;23.50;99.90;;;;;;5035862;28;20457;-68
2023/10/11 12:31:00;;;;;;;17.02;10.25;;;23.30;99.90;;;;;;5034591;28;20084;-68
2023/10/11 12:33:27;;;;;;;16.08;10.80;;;23.10;99.90;;;;;;5022417;28;20102;-68
2023/10/11 12:35:53;;;;;;;16.85;10.30;;;23.10;99.90;;;;;;5034250;28;20078;-68
2023/10/11 12:38:18;;;;;;;17.65;9.75;;;23.00;99.90;;;;;;5033884;28;20046;-68
2023/10/11 12:40:44;;;;;;;18.20;10.30;;;23.00;99.90;;;;;;5023296;28;20029;-68
2023/10/11 12:43:10;;;;;;;21.35;12.23;;;23.10;99.90;;;;;;5014910;28;20107;-68
2023/10/11 12:45:41;;;;;;;17.73;10.95;;;23.10;99.90;;;;;;5028475;28;20040;-65
2023/10/11 12:48:10;;;;;;;16.50;9.95;;;23.00;99.90;;;;;;5040380;28;21630;-66
2023/10/11 12:50:36;;;;;;;17.83;9.63;;;23.00;99.90;;;;;;5032236;28;20043;-68
2023/10/11 12:53:13;;;;;;;14.38;9.07;;;23.00;99.90;;;;;;5027049;28;20040;-67
2023/10/11 12:55:45;;;;;;;20.00;10.23;;;23.00;99.90;;;;;;5006483;28;20585;-67
2023/10/11 12:58:14;;;;;;;16.35;9.43;;;23.10;99.90;;;;;;5021685;28;20941;-67
2023/10/11 13:00:58;;;;;;;18.73;10.00;;;23.20;99.90;;;;;;5018853;28;20041;-67
2023/10/11 13:03:37;;;;;;;17.45;10.23;;;23.20;99.90;;;;;;5022195;28;20082;-68
2023/10/11 13:06:09;;;;;;;15.75;9.32;;;23.20;99.90;;;;;;5033348;28;20037;-70
2023/10/11 13:08:37;;;;;;;;;;;23.20;99.90;;;;;;5035592;28;20497;-70
2023/10/11 13:11:05;;;;;;;12.95;9.45;;;23.10;99.90;;;;;;5029491;28;19917;-69
2023/10/11 13:13:32;;;;;;;13.15;8.75;;;23.10;99.90;;;;;;5031628;28;20471;-68
2023/10/11 13:16:01;;;;;;;13.70;8.73;;;23.10;99.90;;;;;;5029921;28;20120;-70
2023/10/11 13:18:32;;;;;;;22.70;9.20;;;23.20;99.90;;;;;;5024108;28;20176;-68
2023/10/11 13:20:59;;;;;;;10.02;6.90;;;23.30;99.90;;;;;;5036967;28;20029;-69
2023/10/11 13:23:34;;;;;;;14.45;7.85;;;23.50;99.90;;;;;;5033877;28;20071;-68
2023/10/11 13:26:08;;;;;;;16.88;7.45;;;23.70;99.90;;;;;;5023291;28;20037;-68
2023/10/11 13:28:35;;;;;;;12.30;7.10;;;23.80;99.90;;;;;;5034145;28;20711;-68
2023/10/11 13:31:02;;;;;;;12.90;7.20;;;23.90;99.90;;;;;;5030603;28;20064;-67
2023/10/11 13:33:31;;;;;;;11.23;6.80;;;23.90;99.90;;;;;;5022199;28;20132;-68
2023/10/11 13:36:01;;;;;;;11.77;6.47;;;24.00;99.90;;;;;;5021424;28;20112;-69
2023/10/11 13:38:30;;;;;;;12.63;6.43;;;23.90;99.90;;;;;;5027803;28;20434;-67
2023/10/11 13:41:00;;;;;;;9.18;5.50;;;23.70;99.90;;;;;;5019674;28;20556;-68
2023/10/11 13:43:26;;;;;;;9.68;5.32;;;23.70;99.90;;;;;;5016084;28;20060;-70
2023/10/11 13:46:01;;;;;;;7.47;5.20;;;23.60;99.90;;;;;;5020364;28;20582;-68